createdAt,value
2023-05-12T00:01:06.657Z,65.50
2023-05-12T00:03:33.868Z,65.51
2023-05-12T00:06:01.392Z,65.92
2023-05-12T00:08:28.141Z,67.62
2023-05-12T00:10:54.803Z,66.35
2023-05-12T00:13:21.567Z,65.96
2023-05-12T00:15:48.214Z,65.57
2023-05-12T00:18:14.924Z,64.91
2023-05-12T00:20:41.602Z,64.35
2023-05-12T00:23:08.394Z,62.05
2023-05-12T00:25:35.079Z,61.04
2023-05-12T00:28:01.743Z,61.56
2023-05-12T00:30:28.334Z,61.54
2023-05-12T00:32:55.036Z,61.77
2023-05-12T00:35:21.733Z,61.55
2023-05-12T00:37:48.361Z,60.48
2023-05-12T00:40:15.001Z,60.29
2023-05-12T00:42:41.603Z,61.79
2023-05-12T00:45:08.807Z,61.31
2023-05-12T00:47:35.672Z,61.63
2023-05-12T00:50:04.163Z,61.97
2023-05-12T00:52:31.072Z,61.53
2023-05-12T00:55:00.233Z,63.79
2023-05-12T00:57:27.064Z,63.97
2023-05-12T00:59:54.896Z,64.17
2023-05-12T01:02:22.457Z,64.22
2023-05-12T01:04:49.838Z,65.11
2023-05-12T01:07:21.777Z,63.68
2023-05-12T01:09:58.684Z,65.26
2023-05-12T01:12:27.270Z,64.44
2023-05-12T01:14:56.161Z,63.70
2023-05-12T01:17:31.469Z,63.28
2023-05-12T01:20:01.527Z,63.18
2023-05-12T01:22:33.262Z,62.95
2023-05-12T01:25:03.961Z,61.38
2023-05-12T01:27:33.029Z,60.66
2023-05-12T01:30:02.833Z,61.42
2023-05-12T01:32:29.491Z,60.93
2023-05-12T01:34:56.598Z,59.18
2023-05-12T01:37:23.225Z,59.48
2023-05-12T01:39:49.843Z,60.02
2023-05-12T01:42:16.461Z,60.80
2023-05-12T01:44:43.084Z,60.55
2023-05-12T01:47:09.782Z,60.85
2023-05-12T01:49:36.853Z,61.05
2023-05-12T01:52:04.003Z,62.13
2023-05-12T01:54:30.663Z,61.82
2023-05-12T01:56:57.305Z,62.04
2023-05-12T01:59:23.963Z,61.72
2023-05-12T02:01:50.639Z,61.82
2023-05-12T02:04:17.465Z,61.69
2023-05-12T02:06:44.087Z,60.48
2023-05-12T02:09:10.752Z,59.82
2023-05-12T02:11:37.491Z,61.19
2023-05-12T02:14:04.233Z,60.02
2023-05-12T02:16:30.911Z,59.45
2023-05-12T02:18:57.855Z,59.71
2023-05-12T02:21:24.532Z,59.78
2023-05-12T02:23:51.183Z,59.74
2023-05-12T02:26:17.804Z,59.55
2023-05-12T02:28:44.461Z,59.47
2023-05-12T02:31:11.074Z,60.62
2023-05-12T02:33:37.747Z,60.25
2023-05-12T02:36:04.645Z,60.20
2023-05-12T02:38:31.390Z,58.88
2023-05-12T02:40:58.276Z,59.23
2023-05-12T02:43:24.895Z,58.48
2023-05-12T02:45:51.492Z,59.63
2023-05-12T02:48:18.376Z,60.35
2023-05-12T02:50:45.105Z,59.46
2023-05-12T02:53:11.776Z,60.25
2023-05-12T02:55:38.937Z,62.23
2023-05-12T02:58:05.808Z,61.41
2023-05-12T03:00:32.424Z,61.66
2023-05-12T03:02:59.098Z,60.75
2023-05-12T03:05:25.806Z,59.63
2023-05-12T03:07:52.509Z,59.63
2023-05-12T03:10:19.320Z,60.48
2023-05-12T03:12:46.233Z,59.97
2023-05-12T03:15:12.850Z,61.60
2023-05-12T03:17:39.526Z,62.53
2023-05-12T03:20:07.073Z,62.66
2023-05-12T03:22:34.049Z,63.58
2023-05-12T03:25:00.655Z,63.13
2023-05-12T03:27:27.298Z,63.16
2023-05-12T03:29:54.049Z,63.32
2023-05-12T03:32:21.223Z,62.97
2023-05-12T03:34:47.948Z,62.88
2023-05-12T03:37:14.585Z,62.21
2023-05-12T03:39:41.208Z,63.05
2023-05-12T03:42:07.927Z,61.63
2023-05-12T03:44:34.632Z,60.34
2023-05-12T03:47:01.390Z,62.50
2023-05-12T03:49:28.184Z,60.49
2023-05-12T03:51:54.783Z,60.28
2023-05-12T03:54:21.376Z,59.60
2023-05-12T03:56:47.999Z,59.98
2023-05-12T03:59:16.184Z,60.25
2023-05-12T04:01:42.886Z,59.71
2023-05-12T04:04:10.036Z,59.05
2023-05-12T04:06:36.889Z,61.36
2023-05-12T04:09:03.733Z,62.11
2023-05-12T04:11:30.326Z,63.31
2023-05-12T04:13:56.946Z,63.71
2023-05-12T04:16:23.669Z,62.67
2023-05-12T04:18:50.351Z,63.06
2023-05-12T04:21:16.965Z,63.95
2023-05-12T04:23:43.570Z,62.76
2023-05-12T04:26:10.196Z,63.17
2023-05-12T04:28:36.825Z,63.00
2023-05-12T04:31:04.328Z,62.13
2023-05-12T04:33:31.202Z,62.28
2023-05-12T04:35:58.123Z,62.53
2023-05-12T04:38:24.884Z,60.69
2023-05-12T04:40:51.535Z,61.92
2023-05-12T04:45:50.086Z,64.93
2023-05-12T04:48:16.688Z,64.34
2023-05-12T04:50:43.341Z,63.93
2023-05-12T04:53:11.300Z,64.48
2023-05-12T04:55:38.134Z,64.08
2023-05-12T04:58:04.765Z,65.98
2023-05-12T05:00:31.413Z,65.13
2023-05-12T05:02:58.072Z,66.39
2023-05-12T05:05:24.730Z,66.72
2023-05-12T05:07:51.421Z,67.31
2023-05-12T05:10:18.113Z,66.89
2023-05-12T05:12:44.717Z,67.15
2023-05-12T05:15:11.418Z,66.10
2023-05-12T05:17:38.125Z,66.27
2023-05-12T05:20:09.740Z,65.56
2023-05-12T05:22:38.559Z,65.51
2023-05-12T05:25:05.708Z,66.24
2023-05-12T05:27:32.326Z,66.64
2023-05-12T05:29:58.992Z,66.36
2023-05-12T05:32:25.921Z,65.54
2023-05-12T05:34:52.579Z,65.56
2023-05-12T05:37:19.245Z,66.03
2023-05-12T05:39:45.873Z,67.41
2023-05-12T05:42:12.606Z,66.95
2023-05-12T05:44:39.302Z,67.38
2023-05-12T05:47:06.001Z,66.56
2023-05-12T05:49:32.698Z,65.41
2023-05-12T05:51:59.299Z,63.94
2023-05-12T05:54:26.206Z,63.28
2023-05-12T05:56:52.841Z,63.76
2023-05-12T05:59:19.480Z,63.78
2023-05-12T06:01:46.245Z,66.02
2023-05-12T06:04:13.036Z,64.95
2023-05-12T06:06:39.747Z,64.93
2023-05-12T06:09:06.372Z,64.69
2023-05-12T06:11:33.259Z,65.03
2023-05-12T06:14:00.004Z,64.13
2023-05-12T06:16:26.746Z,64.65
2023-05-12T06:18:53.640Z,65.64
2023-05-12T06:21:20.342Z,65.27
2023-05-12T06:23:47.008Z,64.77
2023-05-12T06:26:13.671Z,64.41
2023-05-12T06:28:40.266Z,65.50
2023-05-12T06:31:07.669Z,65.81
2023-05-12T06:33:34.700Z,64.93
2023-05-12T06:36:01.426Z,64.78
2023-05-12T06:38:28.103Z,64.36
2023-05-12T06:40:54.824Z,63.69
2023-05-12T06:43:21.634Z,64.41
2023-05-12T06:45:48.324Z,63.90
2023-05-12T06:48:14.939Z,63.88
2023-05-12T06:50:41.563Z,63.24
2023-05-12T06:53:08.251Z,62.97
2023-05-12T06:55:34.894Z,62.28
2023-05-12T06:58:01.548Z,66.56
2023-05-12T07:00:28.177Z,67.23
2023-05-12T07:02:54.865Z,68.87
2023-05-12T07:05:21.771Z,68.68
2023-05-12T07:07:49.232Z,68.66
2023-05-12T07:10:15.976Z,69.81
2023-05-12T07:12:43.126Z,69.57
2023-05-12T07:15:10.289Z,68.04
2023-05-12T07:17:37.267Z,68.75
2023-05-12T07:20:04.376Z,68.57
2023-05-12T07:22:31.091Z,67.44
2023-05-12T07:24:58.021Z,66.21
2023-05-12T07:27:25.076Z,67.24
2023-05-12T07:29:52.035Z,67.07
2023-05-12T07:32:18.665Z,67.77
2023-05-12T07:34:45.331Z,66.54
2023-05-12T07:37:11.997Z,66.77
2023-05-12T07:39:38.597Z,67.41
2023-05-12T07:42:05.605Z,66.53
2023-05-12T07:44:32.232Z,64.87
2023-05-12T07:46:58.966Z,65.46
2023-05-12T07:49:25.758Z,64.62
2023-05-12T07:51:52.376Z,65.04
2023-05-12T07:54:21.628Z,64.75
2023-05-12T08:04:42.084Z,65.97
2023-05-12T08:07:10.516Z,65.76
2023-05-12T08:09:37.164Z,65.83
2023-05-12T08:12:04.101Z,65.92
2023-05-12T08:14:30.733Z,64.05
2023-05-12T08:16:57.472Z,64.27
2023-05-12T08:19:24.213Z,64.36
2023-05-12T08:21:50.966Z,63.48
2023-05-12T08:24:17.589Z,62.72
2023-05-12T08:49:36.437Z,63.28
2023-05-12T08:52:03.243Z,62.38
2023-05-12T08:54:30.253Z,62.62
2023-05-12T08:59:27.287Z,61.22
2023-05-12T09:01:55.274Z,59.54
2023-05-12T09:04:21.983Z,59.81
2023-05-12T09:06:49.060Z,58.77
2023-05-12T09:09:17.604Z,57.19
2023-05-12T09:11:44.239Z,55.46
2023-05-12T09:14:18.988Z,55.82
2023-05-12T09:16:50.252Z,55.40
2023-05-12T09:19:21.290Z,54.34
2023-05-12T09:21:48.869Z,55.75
2023-05-12T09:24:18.402Z,57.65
2023-05-12T09:26:48.765Z,55.86
2023-05-12T09:29:27.946Z,55.65
2023-05-12T09:31:59.325Z,56.20
2023-05-12T09:34:31.443Z,56.31
2023-05-12T09:37:00.719Z,55.81
2023-05-12T09:39:27.959Z,57.34
2023-05-12T09:41:58.027Z,56.84
2023-05-12T09:44:26.092Z,55.44
2023-05-12T09:46:52.988Z,54.30
2023-05-12T09:49:24.342Z,52.94
2023-05-12T09:51:58.160Z,53.94
2023-05-12T09:54:29.955Z,54.22
2023-05-12T09:57:02.697Z,54.46
2023-05-12T09:59:34.615Z,54.55
2023-05-12T10:02:03.444Z,52.63
2023-05-12T10:04:36.302Z,51.96
2023-05-12T10:07:05.462Z,53.47
2023-05-12T10:09:34.493Z,54.69
2023-05-12T10:12:04.232Z,54.21
2023-05-12T10:14:32.106Z,53.49
2023-05-12T10:17:02.025Z,53.66
2023-05-12T10:19:30.703Z,53.49
2023-05-12T10:21:58.113Z,54.12
2023-05-12T10:24:26.371Z,52.84
2023-05-12T10:26:56.316Z,53.99
2023-05-12T10:29:26.990Z,53.15
2023-05-12T10:31:53.675Z,53.34
2023-05-12T10:34:20.318Z,52.91
2023-05-12T10:36:48.641Z,54.15
2023-05-12T10:39:15.840Z,53.63
2023-05-12T10:41:42.576Z,54.32
2023-05-12T10:44:09.301Z,54.85
2023-05-12T10:46:38.337Z,54.38
2023-05-12T10:49:10.393Z,54.63
2023-05-12T10:51:48.300Z,55.68
2023-05-12T10:54:25.187Z,54.74
2023-05-12T10:56:53.290Z,54.78
2023-05-12T10:59:22.666Z,53.44
2023-05-12T11:01:57.713Z,52.91
2023-05-12T11:04:41.020Z,52.84
2023-05-12T11:07:11.466Z,51.82
2023-05-12T11:09:50.640Z,52.77
2023-05-12T11:12:26.221Z,52.48
2023-05-12T11:14:52.934Z,52.09
2023-05-12T11:17:19.594Z,53.56
2023-05-12T11:19:48.288Z,52.94
2023-05-12T11:22:19.004Z,54.09
2023-05-12T11:24:46.363Z,52.67
2023-05-12T11:27:15.647Z,51.67
2023-05-12T11:29:43.716Z,50.85
2023-05-12T11:32:11.785Z,51.73
2023-05-12T11:34:38.899Z,50.90
2023-05-12T11:37:06.167Z,49.29
2023-05-12T11:39:33.544Z,49.58
2023-05-12T11:42:12.099Z,46.64
2023-05-12T11:44:48.447Z,47.64
2023-05-12T11:47:16.398Z,50.02
2023-05-12T11:49:47.027Z,51.55
2023-05-12T11:52:14.392Z,51.52
2023-05-12T11:54:50.572Z,52.48
2023-05-12T11:57:31.920Z,48.51
2023-05-12T12:00:04.759Z,50.50
2023-05-12T12:02:31.472Z,51.07
2023-05-12T12:04:58.280Z,50.72
2023-05-12T12:07:35.957Z,50.63
2023-05-12T12:10:17.045Z,51.16
2023-05-12T12:12:44.944Z,49.40
2023-05-12T12:15:12.922Z,49.16
2023-05-12T12:17:40.362Z,48.56
2023-05-12T12:20:08.439Z,48.38
2023-05-12T12:22:35.344Z,45.55
2023-05-12T12:25:03.188Z,47.20
2023-05-12T12:27:30.088Z,48.30
2023-05-12T12:29:57.137Z,46.31
2023-05-12T12:32:24.683Z,47.04
2023-05-12T12:34:52.372Z,47.30
2023-05-12T12:37:19.259Z,47.68
2023-05-12T12:39:45.961Z,46.76
2023-05-12T12:42:12.597Z,47.90
2023-05-12T12:44:39.403Z,48.18
2023-05-12T12:47:06.030Z,49.14
2023-05-12T12:49:32.696Z,46.33
2023-05-12T12:51:59.406Z,46.46
2023-05-12T12:54:27.959Z,47.60
2023-05-12T12:56:54.827Z,48.48
2023-05-12T12:59:21.427Z,48.07
2023-05-12T13:01:48.179Z,47.31
2023-05-12T13:04:15.136Z,48.85
2023-05-12T13:06:41.742Z,47.98
2023-05-12T13:09:08.353Z,46.93
2023-05-12T13:11:34.981Z,47.68
2023-05-12T13:14:01.617Z,45.43
2023-05-12T13:16:31.018Z,47.40
2023-05-12T13:18:57.756Z,47.83
2023-05-12T13:21:24.558Z,47.52
2023-05-12T13:23:51.189Z,49.15
2023-05-12T13:26:17.816Z,49.02
2023-05-12T13:28:44.498Z,46.09
2023-05-12T13:31:11.238Z,47.79
2023-05-12T13:33:37.824Z,47.72
2023-05-12T13:36:04.688Z,48.49
2023-05-12T13:38:31.270Z,48.30
2023-05-12T13:40:57.969Z,50.54
2023-05-12T13:43:24.616Z,50.24
2023-05-12T13:45:51.228Z,51.55
2023-05-12T13:48:17.872Z,49.22
2023-05-12T13:50:44.495Z,49.91
2023-05-12T13:53:11.122Z,50.42
2023-05-12T13:55:39.858Z,50.71
2023-05-12T13:58:07.397Z,50.55
2023-05-12T14:00:34.086Z,48.88
2023-05-12T14:03:00.852Z,49.79
2023-05-12T14:05:27.656Z,49.38
2023-05-12T14:07:54.300Z,49.82
2023-05-12T14:10:20.942Z,49.07
2023-05-12T14:12:50.103Z,49.77
2023-05-12T14:15:24.082Z,48.83
2023-05-12T14:17:55.974Z,48.32
2023-05-12T14:20:22.705Z,48.37
2023-05-12T14:22:49.349Z,47.10
2023-05-12T14:25:15.994Z,47.42
2023-05-12T14:27:42.631Z,47.94
2023-05-12T14:30:09.734Z,46.58
2023-05-12T14:32:36.522Z,47.31
2023-05-12T14:35:03.315Z,47.90
2023-05-12T14:37:30.045Z,49.23
2023-05-12T14:39:56.726Z,49.01
2023-05-12T14:42:23.546Z,49.32
2023-05-12T14:44:50.149Z,48.60
2023-05-12T14:47:16.805Z,49.92
2023-05-12T14:49:45.925Z,50.50
2023-05-12T14:52:12.548Z,50.03
2023-05-12T14:54:39.196Z,51.44
2023-05-12T14:57:07.955Z,52.45
2023-05-12T14:59:34.793Z,51.93
2023-05-12T15:02:04.690Z,53.56
2023-05-12T15:04:31.457Z,55.18
2023-05-12T15:06:58.131Z,55.09
2023-05-12T15:09:27.486Z,55.13
2023-05-12T15:11:56.394Z,55.05
2023-05-12T15:16:50.742Z,53.24
2023-05-12T15:19:17.598Z,52.82
2023-05-12T15:21:44.330Z,51.15
2023-05-12T15:24:10.914Z,50.86
2023-05-12T15:26:39.724Z,49.82
2023-05-12T15:29:07.679Z,49.53
2023-05-12T15:31:35.233Z,48.79
2023-05-12T15:34:02.395Z,49.66
2023-05-12T15:36:29.033Z,48.51
2023-05-12T15:38:55.635Z,48.44
2023-05-12T15:41:22.289Z,48.47
2023-05-12T15:43:48.954Z,48.81
2023-05-12T15:46:15.588Z,49.20
2023-05-12T15:48:42.766Z,49.82
2023-05-12T15:51:09.462Z,50.08
2023-05-12T15:53:36.066Z,50.04
2023-05-12T15:56:04.575Z,49.49
2023-05-12T15:58:32.058Z,50.43
2023-05-12T16:00:59.311Z,51.26
2023-05-12T16:03:26.201Z,51.25
2023-05-12T16:05:53.283Z,50.60
2023-05-12T16:08:19.976Z,50.17
2023-05-12T16:10:46.571Z,50.42
2023-05-12T16:13:13.272Z,50.33
2023-05-12T16:15:39.885Z,51.20
2023-05-12T16:18:09.144Z,50.71
2023-05-12T16:20:37.662Z,51.04
2023-05-12T16:23:04.292Z,50.49
2023-05-12T16:25:31.076Z,51.14
2023-05-12T16:27:57.753Z,51.40
2023-05-12T16:30:24.523Z,51.60
2023-05-12T16:32:51.278Z,51.53
2023-05-12T16:35:18.074Z,51.93
2023-05-12T16:37:44.788Z,51.89
2023-05-12T16:40:11.562Z,51.50
2023-05-12T16:42:38.196Z,52.54
2023-05-12T16:45:05.212Z,52.61
2023-05-12T16:47:32.028Z,53.00
2023-05-12T16:49:58.745Z,53.68
2023-05-12T16:52:26.177Z,54.26
2023-05-12T16:54:53.198Z,53.84
2023-05-12T16:57:20.064Z,53.91
2023-05-12T16:59:46.941Z,54.19
2023-05-12T17:02:13.865Z,51.21
2023-05-12T17:04:40.572Z,51.50
2023-05-12T17:07:07.339Z,52.21
2023-05-12T17:09:34.282Z,51.36
2023-05-12T17:12:01.209Z,52.21
2023-05-12T17:14:27.859Z,52.19
2023-05-12T17:16:54.529Z,52.74
2023-05-12T17:19:21.233Z,53.10
2023-05-12T17:21:48.205Z,53.07
2023-05-12T17:24:14.895Z,52.40
2023-05-12T17:26:41.542Z,52.15
2023-05-12T17:29:08.305Z,52.33
2023-05-12T17:31:35.051Z,52.84
2023-05-12T17:34:01.951Z,53.15
2023-05-12T17:36:28.705Z,53.93
2023-05-12T17:38:56.603Z,54.31
2023-05-12T17:41:23.371Z,54.52
2023-05-12T17:43:50.055Z,54.50
2023-05-12T17:46:16.795Z,54.82
2023-05-12T17:48:43.522Z,55.04
2023-05-12T17:51:10.162Z,54.95
2023-05-12T17:53:36.829Z,54.56
2023-05-12T17:56:03.566Z,55.39
2023-05-12T17:58:30.355Z,55.45
2023-05-12T18:00:57.118Z,55.71
2023-05-12T18:03:24.032Z,56.08
2023-05-12T18:05:52.773Z,55.98
2023-05-12T18:08:19.522Z,56.72
2023-05-12T18:10:48.244Z,56.78
2023-05-12T18:13:14.989Z,56.85
2023-05-12T18:15:44.505Z,56.70
2023-05-12T18:18:11.284Z,57.17
2023-05-12T18:20:38.169Z,57.30
2023-05-12T18:23:04.979Z,57.99
2023-05-12T18:25:33.115Z,58.21
2023-05-12T18:28:00.061Z,58.49
2023-05-12T18:30:26.749Z,57.71
2023-05-12T18:32:53.756Z,57.52
2023-05-12T18:35:20.648Z,57.26
2023-05-12T18:37:50.256Z,57.01
2023-05-12T18:40:16.910Z,57.06
2023-05-12T18:42:46.271Z,57.17
2023-05-12T18:45:16.038Z,57.52
2023-05-12T18:47:42.681Z,56.97
2023-05-12T18:50:09.766Z,56.73
2023-05-12T18:52:39.573Z,56.50
2023-05-12T18:55:06.721Z,56.19
2023-05-12T18:57:36.684Z,56.07
2023-05-12T19:00:06.787Z,56.24
2023-05-12T19:02:33.483Z,56.51
2023-05-12T19:05:00.534Z,57.47
2023-05-12T19:07:27.187Z,58.21
2023-05-12T19:09:53.820Z,57.99
2023-05-12T19:12:20.408Z,58.22
2023-05-12T19:14:47.001Z,58.95
2023-05-12T19:17:13.636Z,58.90
2023-05-12T19:19:40.273Z,59.56
2023-05-12T19:22:06.987Z,59.83
2023-05-12T19:24:34.008Z,60.48
2023-05-12T19:27:00.669Z,60.64
2023-05-12T19:29:27.264Z,60.31
2023-05-12T19:31:53.922Z,60.69
2023-05-12T19:34:20.648Z,61.09
2023-05-12T19:36:47.592Z,60.89
2023-05-12T19:39:14.492Z,60.80
2023-05-12T19:41:41.147Z,61.30
2023-05-12T19:44:07.872Z,61.23
2023-05-12T19:46:34.629Z,61.71
2023-05-12T19:49:01.294Z,61.37
2023-05-12T19:51:28.576Z,61.18
2023-05-12T19:53:55.249Z,61.80
2023-05-12T19:56:22.400Z,61.34
2023-05-12T19:58:49.058Z,61.66
2023-05-12T20:01:15.840Z,62.22
2023-05-12T20:03:42.531Z,62.10
2023-05-12T20:06:09.199Z,61.95
2023-05-12T20:08:35.813Z,62.08
2023-05-12T20:11:02.473Z,62.46
2023-05-12T20:13:29.126Z,61.90
2023-05-12T20:15:55.798Z,62.18
2023-05-12T20:18:22.623Z,62.47
2023-05-12T20:20:49.573Z,62.29
2023-05-12T20:23:16.568Z,62.58
2023-05-12T20:25:43.214Z,62.78
2023-05-12T20:28:09.828Z,62.37
2023-05-12T20:30:36.426Z,62.61
2023-05-12T20:33:03.187Z,63.44
2023-05-12T20:35:29.805Z,63.43
2023-05-12T20:37:56.441Z,63.15
2023-05-12T20:40:23.045Z,63.19
2023-05-12T20:42:49.817Z,64.23
2023-05-12T20:45:16.550Z,64.69
2023-05-12T20:47:43.197Z,64.83
2023-05-12T20:50:10.427Z,64.87
2023-05-12T20:52:38.293Z,64.76
2023-05-12T20:55:06.025Z,64.84
2023-05-12T20:57:32.903Z,64.95
2023-05-12T20:59:59.511Z,65.55
2023-05-12T21:02:27.622Z,65.63
2023-05-12T21:04:54.698Z,65.48
2023-05-12T21:07:21.441Z,65.94
2023-05-12T21:09:48.113Z,65.83
2023-05-12T21:12:15.385Z,65.62
2023-05-12T21:14:43.936Z,65.95
2023-05-12T21:17:11.505Z,65.33
2023-05-12T21:19:39.654Z,65.33
2023-05-12T21:22:07.790Z,65.38
2023-05-12T21:24:34.447Z,65.59
2023-05-12T21:27:06.167Z,65.30
2023-05-12T21:29:34.106Z,65.61
2023-05-12T21:32:01.844Z,65.75
2023-05-12T21:34:28.695Z,66.34
2023-05-12T21:36:55.502Z,66.14
2023-05-12T21:39:22.456Z,65.21
2023-05-12T21:41:49.207Z,65.62
2023-05-12T21:44:16.149Z,65.60
2023-05-12T21:46:43.448Z,65.59
2023-05-12T21:49:11.666Z,65.77
2023-05-12T21:51:38.699Z,65.95
2023-05-12T21:54:05.555Z,66.44
2023-05-12T21:56:32.185Z,66.24
2023-05-12T21:58:58.852Z,65.61
2023-05-12T22:01:25.646Z,65.97
2023-05-12T22:03:55.420Z,65.82
2023-05-12T22:06:22.216Z,65.53
2023-05-12T22:08:49.150Z,66.04
2023-05-12T22:11:16.095Z,65.80
2023-05-12T22:13:42.902Z,65.56
2023-05-12T22:16:09.541Z,65.55
2023-05-12T22:18:38.506Z,65.61
2023-05-12T22:21:05.196Z,65.87
2023-05-12T22:23:31.883Z,65.98
2023-05-12T22:25:58.481Z,66.01
2023-05-12T22:28:25.104Z,65.83
2023-05-12T22:30:51.719Z,66.12
2023-05-12T22:33:18.778Z,65.54
2023-05-12T22:35:45.466Z,65.87
2023-05-12T22:38:12.070Z,66.38
2023-05-12T22:40:38.742Z,66.20
2023-05-12T22:43:05.443Z,67.09
2023-05-12T22:45:32.304Z,67.11
2023-05-12T22:47:59.068Z,66.73
2023-05-12T22:50:25.737Z,66.93
2023-05-12T22:52:52.580Z,67.49
2023-05-12T22:55:19.348Z,67.25
2023-05-12T22:57:46.035Z,67.15
2023-05-12T23:00:13.225Z,67.75
2023-05-12T23:02:39.911Z,67.47
2023-05-12T23:05:06.913Z,67.58
2023-05-12T23:07:33.554Z,68.08
2023-05-12T23:10:00.218Z,68.03
2023-05-12T23:12:26.917Z,68.64
2023-05-12T23:14:53.532Z,68.02
2023-05-12T23:17:20.251Z,68.48
2023-05-12T23:19:46.860Z,68.89
2023-05-12T23:22:13.485Z,69.22
2023-05-12T23:24:40.151Z,69.02
2023-05-12T23:27:06.889Z,69.87
2023-05-12T23:29:33.548Z,69.37
2023-05-12T23:32:03.251Z,69.98
2023-05-12T23:34:29.936Z,70.21
2023-05-12T23:36:56.572Z,70.21
2023-05-12T23:39:23.206Z,70.32
2023-05-12T23:41:49.982Z,71.02
2023-05-12T23:44:16.622Z,70.41
2023-05-12T23:46:43.454Z,70.93
2023-05-12T23:49:10.198Z,71.24
2023-05-12T23:51:36.922Z,70.96
2023-05-12T23:54:03.763Z,71.36
2023-05-12T23:56:30.508Z,71.34
2023-05-12T23:58:57.167Z,71.85
